createdAt,value
2019-05-05T00:00:56.109Z,97018.02
2019-05-05T00:02:50.437Z,97012.63
2019-05-05T00:04:45.506Z,97020.48
2019-05-05T00:06:21.068Z,97021.61
2019-05-05T00:07:56.253Z,97026.73
2019-05-05T00:09:31.709Z,97025.84
2019-05-05T00:11:29.229Z,97028.34
2019-05-05T00:13:17.266Z,97035.11
2019-05-05T00:15:26.822Z,97036.61
2019-05-05T00:17:10.399Z,97032.16
2019-05-05T00:18:48.458Z,97028.73
2019-05-05T00:20:27.804Z,97033.64
2019-05-05T00:22:04.533Z,97035.09
2019-05-05T00:23:41.961Z,97034.97
2019-05-05T00:25:18.235Z,97030.87
2019-05-05T00:26:55.312Z,97037.73
2019-05-05T00:28:32.211Z,97036.91
2019-05-05T00:30:26.026Z,97037.47
2019-05-05T00:32:01.721Z,97036.34
2019-05-05T00:33:39.342Z,97037.03
2019-05-05T00:35:14.934Z,97041.14
2019-05-05T00:36:50.891Z,97041.55
2019-05-05T00:38:28.227Z,97045.98
2019-05-05T00:40:04.964Z,97048.67
2019-05-05T00:41:40.492Z,97049.03
2019-05-05T00:43:15.812Z,97053.33
2019-05-05T00:44:51.652Z,97046.27
2019-05-05T00:46:46.047Z,97053.64
2019-05-05T00:48:27.486Z,97057.37
2019-05-05T00:50:02.727Z,97062.27
2019-05-05T00:51:39.066Z,97056.67
2019-05-05T00:53:14.857Z,97057.78
2019-05-05T00:54:50.352Z,97062.45
2019-05-05T00:56:26.066Z,97061.73
2019-05-05T00:58:01.448Z,97061.02
2019-05-05T00:59:36.708Z,97061.02
2019-05-05T01:01:35.644Z,97064.31
2019-05-05T01:03:11.914Z,97064.80
2019-05-05T01:05:11.925Z,97065.66
2019-05-05T01:06:47.575Z,97064.65
2019-05-05T01:08:25.743Z,97068.17
2019-05-05T01:10:01.066Z,97066.70
2019-05-05T01:11:38.409Z,97065.69
2019-05-05T01:13:15.490Z,97067.12
2019-05-05T01:14:50.693Z,97063.95
2019-05-05T01:16:26.956Z,97064.28
2019-05-05T01:18:04.255Z,97064.64
2019-05-05T01:19:41.400Z,97066.48
2019-05-05T01:21:16.700Z,97066.80
2019-05-05T01:22:52.139Z,97065.45
2019-05-05T01:24:28.527Z,97067.93
2019-05-05T01:26:05.127Z,97063.48
2019-05-05T01:27:45.276Z,97067.36
2019-05-05T01:29:20.661Z,97065.28
2019-05-05T01:31:02.512Z,97070.14
2019-05-05T01:32:41.063Z,97067.81
2019-05-05T01:34:24.185Z,97070.82
2019-05-05T01:35:59.670Z,97069.52
2019-05-05T01:37:50.233Z,97069.13
2019-05-05T01:39:45.231Z,97069.20
2019-05-05T01:41:51.584Z,97074.85
2019-05-05T01:43:26.884Z,97073.62
2019-05-05T01:45:07.053Z,97074.11
2019-05-05T01:46:44.544Z,97072.78
2019-05-05T01:48:24.817Z,97073.34
2019-05-05T01:50:00.047Z,97076.38
2019-05-05T01:51:35.697Z,97078.66
2019-05-05T01:53:15.246Z,97079.62
2019-05-05T01:54:50.205Z,97080.70
2019-05-05T01:56:25.354Z,97081.70
2019-05-05T01:58:04.770Z,97086.95
2019-05-05T01:59:40.453Z,97084.77
2019-05-05T02:01:16.216Z,97089.70
2019-05-05T02:02:52.400Z,97081.55
2019-05-05T02:04:27.675Z,97088.95
2019-05-05T02:06:05.082Z,97088.64
2019-05-05T02:07:40.167Z,97088.32
2019-05-05T02:09:16.023Z,97086.88
2019-05-05T02:10:51.584Z,97092.88
2019-05-05T02:12:26.780Z,97090.91
2019-05-05T02:14:01.973Z,97088.89
2019-05-05T02:15:37.947Z,97088.61
2019-05-05T02:17:14.439Z,97083.64
2019-05-05T02:18:54.434Z,97083.98
2019-05-05T02:20:54.319Z,97091.67
2019-05-05T02:22:33.123Z,97092.84
2019-05-05T02:24:08.660Z,97093.05
2019-05-05T02:25:45.718Z,97091.56
2019-05-05T02:27:22.338Z,97083.88
2019-05-05T02:29:14.131Z,97090.13
2019-05-05T02:31:08.558Z,97087.66
2019-05-05T02:32:49.824Z,97091.78
2019-05-05T02:34:25.996Z,97087.05
2019-05-05T02:36:05.526Z,97092.72
2019-05-05T02:37:40.938Z,97090.53
2019-05-05T02:39:16.828Z,97094.69
2019-05-05T02:40:54.684Z,97093.70
2019-05-05T02:42:29.525Z,97093.52
2019-05-05T02:44:05.234Z,97096.24
2019-05-05T02:45:55.388Z,97100.20
2019-05-05T02:47:54.880Z,97097.45
2019-05-05T02:49:34.947Z,97099.32
2019-05-05T02:51:07.721Z,97102.78
2019-05-05T02:52:44.245Z,97096.95
2019-05-05T02:54:20.271Z,97104.78
2019-05-05T02:55:57.428Z,97106.89
2019-05-05T02:57:34.456Z,97104.75
2019-05-05T02:59:14.607Z,97109.78
2019-05-05T03:01:26.486Z,97104.64
2019-05-05T03:03:04.329Z,97113.14
2019-05-05T03:04:39.382Z,97110.81
2019-05-05T03:06:15.381Z,97115.82
2019-05-05T03:07:50.930Z,97111.87
2019-05-05T03:09:26.336Z,97115.68
2019-05-05T03:11:01.553Z,97117.02
2019-05-05T03:12:38.023Z,97108.98
2019-05-05T03:14:14.354Z,97112.16
2019-05-05T03:15:55.059Z,97114.69
2019-05-05T03:17:34.094Z,97116.59
2019-05-05T03:19:14.282Z,97117.02
2019-05-05T03:21:01.538Z,97117.09
2019-05-05T03:22:26.940Z,97115.19
2019-05-05T03:24:03.709Z,97115.12
2019-05-05T03:25:39.442Z,97120.27
2019-05-05T03:27:17.642Z,97119.42
2019-05-05T03:28:56.581Z,97123.30
2019-05-05T03:30:35.359Z,97122.03
2019-05-05T03:32:11.718Z,97124.36
2019-05-05T03:33:46.573Z,97123.80
2019-05-05T03:35:23.681Z,97129.97
2019-05-05T03:36:59.482Z,97135.97
2019-05-05T03:38:34.836Z,97140.91
2019-05-05T03:40:17.455Z,97136.81
2019-05-05T03:42:29.984Z,97137.84
2019-05-05T03:44:30.133Z,97143.16
2019-05-05T03:46:07.710Z,97140.55
2019-05-05T03:47:44.325Z,97137.55
2019-05-05T03:49:20.039Z,97143.13
2019-05-05T03:50:55.264Z,97140.23
2019-05-05T03:52:30.447Z,97143.05
2019-05-05T03:55:07.517Z,97139.02
2019-05-05T03:56:44.209Z,97151.77
2019-05-05T03:58:19.856Z,97151.05
2019-05-05T03:59:55.085Z,97152.04
2019-05-05T04:01:40.604Z,97150.91
2019-05-05T04:03:16.188Z,97155.53
2019-05-05T04:04:54.796Z,97153.96
2019-05-05T04:06:38.752Z,97163.16
2019-05-05T04:08:15.291Z,97155.05
2019-05-05T04:09:51.053Z,97157.25
2019-05-05T04:11:28.625Z,97163.22
2019-05-05T04:13:08.138Z,97162.33
2019-05-05T04:14:44.339Z,97168.11
2019-05-05T04:16:27.787Z,97167.18
2019-05-05T04:18:10.778Z,97175.45
2019-05-05T04:19:47.855Z,97181.62
2019-05-05T04:21:32.793Z,97175.95
2019-05-05T04:23:03.840Z,97178.15
2019-05-05T04:24:39.382Z,97184.61
2019-05-05T04:26:16.391Z,97182.42
2019-05-05T04:27:53.702Z,97183.19
2019-05-05T04:29:28.739Z,97179.59
2019-05-05T04:31:04.625Z,97183.73
2019-05-05T04:32:39.715Z,97186.13
2019-05-05T04:34:15.212Z,97189.18
2019-05-05T04:35:50.355Z,97188.61
2019-05-05T04:37:26.004Z,97190.33
2019-05-05T04:39:01.171Z,97202.69
2019-05-05T04:40:39.719Z,97195.83
2019-05-05T04:42:15.336Z,97205.70
2019-05-05T04:43:51.043Z,97200.22
2019-05-05T04:45:26.674Z,97204.14
2019-05-05T04:47:07.413Z,97204.71
2019-05-05T04:48:48.131Z,97208.19
2019-05-05T04:50:54.494Z,97213.83
2019-05-05T04:52:30.218Z,97215.02
2019-05-05T04:54:28.025Z,97216.05
2019-05-05T04:56:04.224Z,97217.28
2019-05-05T04:57:40.345Z,97220.06
2019-05-05T04:59:15.423Z,97217.42
2019-05-05T05:00:51.187Z,97218.80
2019-05-05T05:02:37.714Z,97219.05
2019-05-05T05:04:34.960Z,97211.05
2019-05-05T05:06:18.980Z,97215.91
2019-05-05T05:07:55.393Z,97212.89
2019-05-05T05:09:31.390Z,97208.08
2019-05-05T05:11:06.482Z,97209.46
2019-05-05T05:12:43.601Z,97205.25
2019-05-05T05:14:28.024Z,97203.36
2019-05-05T05:16:05.880Z,97199.16
2019-05-05T05:17:56.435Z,97196.87
2019-05-05T05:19:36.401Z,97192.42
2019-05-05T05:21:14.762Z,97192.05
2019-05-05T05:22:50.246Z,97187.64
2019-05-05T05:24:29.105Z,97179.56
2019-05-05T05:26:06.761Z,97177.06
2019-05-05T05:27:44.167Z,97169.02
2019-05-05T05:29:23.812Z,97176.55
2019-05-05T05:31:17.457Z,97165.55
2019-05-05T05:32:59.607Z,97163.63
2019-05-05T05:34:35.186Z,97158.34
2019-05-05T05:36:10.784Z,97162.39
2019-05-05T05:37:46.189Z,97161.30
2019-05-05T05:39:49.245Z,97161.55
2019-05-05T05:41:43.578Z,97157.21
2019-05-05T05:43:25.381Z,97155.58
2019-05-05T05:45:20.017Z,97157.55
2019-05-05T05:47:14.514Z,97158.92
2019-05-05T05:49:08.763Z,97153.86
2019-05-05T05:50:51.011Z,97152.73
2019-05-05T05:52:26.302Z,97151.01
2019-05-05T05:54:03.662Z,97150.25
2019-05-05T05:55:39.285Z,97142.92
2019-05-05T05:57:17.591Z,97136.19
2019-05-05T05:58:54.257Z,97138.50
2019-05-05T06:00:29.938Z,97133.47
2019-05-05T06:02:12.265Z,97132.72
2019-05-05T06:03:44.853Z,97127.13
2019-05-05T06:05:21.033Z,97119.06
2019-05-05T06:07:03.884Z,97123.62
2019-05-05T06:08:36.730Z,97120.78
2019-05-05T06:10:22.115Z,97123.31
2019-05-05T06:11:49.441Z,97127.72
2019-05-05T06:13:24.958Z,97122.16
2019-05-05T06:15:00.468Z,97120.80
2019-05-05T06:16:39.478Z,97115.21
2019-05-05T06:18:13.775Z,97112.15
2019-05-05T06:19:50.368Z,97116.02
2019-05-05T06:21:30.138Z,97113.70
2019-05-05T06:23:08.610Z,97112.53
2019-05-05T06:24:47.211Z,97114.27
2019-05-05T06:26:29.938Z,97112.73
2019-05-05T06:28:05.858Z,97112.34
2019-05-05T06:29:43.793Z,97117.56
2019-05-05T06:31:19.295Z,97104.45
2019-05-05T06:32:54.824Z,97110.24
2019-05-05T06:34:30.125Z,97104.44
2019-05-05T06:36:05.737Z,97101.38
2019-05-05T06:37:56.516Z,97095.97
2019-05-05T06:39:33.498Z,97095.17
2019-05-05T06:41:34.198Z,97092.11
2019-05-05T06:43:25.473Z,97094.41
2019-05-05T06:45:14.339Z,97087.05
2019-05-05T06:47:04.466Z,97097.30
2019-05-05T06:48:41.043Z,97091.31
2019-05-05T06:50:16.477Z,97090.73
2019-05-05T06:51:56.249Z,97088.02
2019-05-05T06:53:31.717Z,97086.47
2019-05-05T06:55:07.032Z,97084.56
2019-05-05T06:56:44.309Z,97081.30
2019-05-05T06:58:24.182Z,97074.94
2019-05-05T06:59:59.409Z,97071.66
2019-05-05T07:01:37.587Z,97072.21
2019-05-05T07:03:13.948Z,97069.70
2019-05-05T07:04:52.182Z,97072.95
2019-05-05T07:06:35.964Z,97075.83
2019-05-05T07:08:13.935Z,97070.19
2019-05-05T07:09:54.151Z,97068.99
2019-05-05T07:11:31.495Z,97075.20
2019-05-05T07:13:07.187Z,97061.12
2019-05-05T07:14:45.426Z,97072.46
2019-05-05T07:16:21.045Z,97072.27
2019-05-05T07:17:58.254Z,97066.32
2019-05-05T07:19:34.464Z,97070.34
2019-05-05T07:21:10.781Z,97074.44
2019-05-05T07:23:01.241Z,97073.67
2019-05-05T07:24:31.141Z,97073.86
2019-05-05T07:26:09.869Z,97076.75
2019-05-05T07:27:45.201Z,97080.80
2019-05-05T07:29:24.800Z,97081.00
2019-05-05T07:31:00.080Z,97089.30
2019-05-05T07:32:38.140Z,97085.83
2019-05-05T07:34:14.390Z,97091.03
2019-05-05T07:36:00.250Z,97094.44
2019-05-05T07:37:31.573Z,97096.60
2019-05-05T07:39:07.255Z,97096.59
2019-05-05T07:40:44.018Z,97099.69
2019-05-05T07:42:19.253Z,97096.98
2019-05-05T07:43:55.102Z,97099.64
2019-05-05T07:45:35.332Z,97093.50
2019-05-05T07:47:10.756Z,97101.19
2019-05-05T07:48:47.048Z,97102.77
2019-05-05T07:50:29.478Z,97102.20
2019-05-05T07:52:00.997Z,97098.53
2019-05-05T07:53:35.909Z,97102.20
2019-05-05T07:55:10.988Z,97107.76
2019-05-05T07:56:46.326Z,97103.52
2019-05-05T07:58:21.763Z,97103.70
2019-05-05T07:59:56.919Z,97106.21
2019-05-05T08:01:34.596Z,97103.64
2019-05-05T08:03:14.397Z,97103.02
2019-05-05T08:04:49.245Z,97101.61
2019-05-05T08:06:24.653Z,97105.90
2019-05-05T08:08:01.285Z,97100.31
2019-05-05T08:09:36.434Z,97101.77
2019-05-05T08:11:18.162Z,97095.02
2019-05-05T08:12:48.740Z,97103.13
2019-05-05T08:14:33.620Z,97104.52
2019-05-05T08:16:15.756Z,97111.81
2019-05-05T08:18:09.732Z,97121.38
2019-05-05T08:20:04.651Z,97120.41
2019-05-05T08:21:40.915Z,97118.84
2019-05-05T08:23:38.432Z,97127.53
2019-05-05T08:25:37.574Z,97136.57
2019-05-05T08:27:34.258Z,97131.94
2019-05-05T08:29:40.054Z,97140.11
2019-05-05T08:31:24.969Z,97146.06
2019-05-05T08:33:00.803Z,97155.17
2019-05-05T08:34:38.627Z,97152.27
2019-05-05T08:36:14.681Z,97161.74
2019-05-05T08:37:51.071Z,97164.78
2019-05-05T08:39:26.811Z,97163.02
2019-05-05T08:41:04.419Z,97170.14
2019-05-05T08:42:39.714Z,97169.34
2019-05-05T08:44:18.976Z,97168.17
2019-05-05T08:45:59.627Z,97174.19
2019-05-05T08:47:35.395Z,97172.67
2019-05-05T08:49:34.660Z,97175.23
2019-05-05T08:51:09.473Z,97181.81
2019-05-05T08:52:47.904Z,97188.55
2019-05-05T08:54:25.022Z,97191.66
2019-05-05T08:56:06.049Z,97200.14
2019-05-05T08:57:41.629Z,97202.64
2019-05-05T08:59:16.705Z,97204.20
2019-05-05T09:00:57.820Z,97205.34
2019-05-05T09:02:35.965Z,97205.89
2019-05-05T09:04:14.185Z,97199.11
2019-05-05T09:05:54.721Z,97194.06
2019-05-05T09:07:30.175Z,97190.00
2019-05-05T09:09:07.481Z,97190.00
2019-05-05T09:10:52.288Z,97186.72
2019-05-05T09:12:28.543Z,97192.12
2019-05-05T09:14:10.302Z,97192.28
2019-05-05T09:15:54.848Z,97184.98
2019-05-05T09:17:30.221Z,97190.36
2019-05-05T09:19:09.704Z,97185.09
2019-05-05T09:20:44.835Z,97186.33
2019-05-05T09:22:24.444Z,97184.67
2019-05-05T09:24:21.083Z,97184.94
2019-05-05T09:26:13.818Z,97187.24
2019-05-05T09:27:56.087Z,97190.52
2019-05-05T09:29:35.890Z,97181.72
2019-05-05T09:31:11.331Z,97170.75
2019-05-05T09:32:49.878Z,97170.75
2019-05-05T09:34:26.938Z,97164.54
2019-05-05T09:36:04.658Z,97157.68
2019-05-05T09:37:41.362Z,97144.02
2019-05-05T09:39:17.372Z,97152.20
2019-05-05T09:40:54.438Z,97143.48
2019-05-05T09:42:34.163Z,97138.53
2019-05-05T09:44:09.462Z,97143.28
2019-05-05T09:45:45.342Z,97136.23
2019-05-05T09:47:24.079Z,97131.45
2019-05-05T09:49:04.567Z,97125.30
2019-05-05T09:50:44.644Z,97122.18
2019-05-05T09:52:21.510Z,97115.13
2019-05-05T09:54:10.712Z,97111.98
2019-05-05T09:55:34.222Z,97097.45
2019-05-05T09:57:11.223Z,97098.91
2019-05-05T09:58:49.565Z,97094.26
2019-05-05T10:00:38.285Z,97084.12
2019-05-05T10:02:16.323Z,97077.81
2019-05-05T10:04:13.726Z,97060.38
2019-05-05T10:06:00.627Z,97057.99
2019-05-05T10:07:43.891Z,97057.58
2019-05-05T10:09:21.457Z,97058.71
2019-05-05T10:11:04.133Z,97051.80
2019-05-05T10:12:39.222Z,97056.09
2019-05-05T10:14:17.159Z,97050.91
2019-05-05T10:15:54.794Z,97049.69
2019-05-05T10:17:33.148Z,97049.61
2019-05-05T10:19:13.920Z,97041.58
2019-05-05T10:20:51.233Z,97039.09
2019-05-05T10:22:26.272Z,97038.69
2019-05-05T10:24:27.141Z,97037.61
2019-05-05T10:25:53.844Z,97035.89
2019-05-05T10:27:41.534Z,97029.88
2019-05-05T10:29:05.676Z,97032.17
2019-05-05T10:30:41.391Z,97031.13
2019-05-05T10:32:26.730Z,97033.81
2019-05-05T10:34:05.016Z,97029.91
2019-05-05T10:35:44.888Z,97031.44
2019-05-05T10:37:20.151Z,97027.42
2019-05-05T10:39:04.391Z,97032.56
2019-05-05T10:40:40.615Z,97028.56
2019-05-05T10:42:20.752Z,97030.53
2019-05-05T10:43:58.525Z,97026.63
2019-05-05T10:45:44.209Z,97027.73
2019-05-05T10:47:33.549Z,97030.70
2019-05-05T10:49:16.702Z,97036.06
2019-05-05T10:50:54.205Z,97026.38
2019-05-05T10:52:30.143Z,97027.48
2019-05-05T10:54:08.145Z,97035.21
2019-05-05T10:56:37.530Z,97039.52
2019-05-05T10:58:16.965Z,97052.67
2019-05-05T10:59:53.983Z,97053.93
2019-05-05T11:01:34.090Z,97059.48
2019-05-05T11:03:14.806Z,97063.38
2019-05-05T11:04:50.929Z,97063.02
2019-05-05T11:06:31.885Z,97062.38
2019-05-05T11:08:07.037Z,97055.91
2019-05-05T11:09:45.107Z,97067.08
2019-05-05T11:11:26.957Z,97063.20
2019-05-05T11:13:05.065Z,97061.33
2019-05-05T11:14:46.007Z,97059.53
2019-05-05T11:16:21.682Z,97053.09
2019-05-05T11:18:04.045Z,97054.38
2019-05-05T11:19:39.469Z,97053.97
2019-05-05T11:21:17.629Z,97053.38
2019-05-05T11:22:55.991Z,97050.30
2019-05-05T11:24:36.345Z,97050.83
2019-05-05T11:26:15.323Z,97056.18
2019-05-05T11:28:07.370Z,97054.28
2019-05-05T11:30:03.999Z,97048.69
2019-05-05T11:31:45.590Z,97051.23
2019-05-05T11:33:58.112Z,97047.47
2019-05-05T11:35:49.342Z,97050.56
2019-05-05T11:37:27.394Z,97049.33
2019-05-05T11:39:05.294Z,97047.38
2019-05-05T11:41:02.237Z,97048.00
2019-05-05T11:42:36.320Z,97054.96
2019-05-05T11:44:12.572Z,97043.20
2019-05-05T11:45:47.863Z,97052.95
2019-05-05T11:47:24.497Z,97045.00
2019-05-05T11:49:00.514Z,97050.54
2019-05-05T11:50:43.653Z,97050.79
2019-05-05T11:52:26.120Z,97055.79
2019-05-05T11:54:02.111Z,97052.00
2019-05-05T11:55:39.073Z,97043.63
2019-05-05T11:57:14.165Z,97035.41
2019-05-05T11:58:49.505Z,97025.41
2019-05-05T12:00:26.321Z,97026.34
2019-05-05T12:02:08.728Z,97021.31
2019-05-05T12:03:46.402Z,97019.94
2019-05-05T12:05:21.792Z,97025.31
2019-05-05T12:07:00.022Z,97032.76
2019-05-05T12:08:46.040Z,97039.31
2019-05-05T12:10:58.615Z,97055.66
2019-05-05T12:12:33.819Z,97066.77
2019-05-05T12:14:14.367Z,97070.12
2019-05-05T12:15:53.885Z,97079.55
2019-05-05T12:17:37.185Z,97100.17
2019-05-05T12:19:13.712Z,97106.79
2019-05-05T12:20:49.388Z,97107.14
2019-05-05T12:22:44.681Z,97111.49
2019-05-05T12:24:27.551Z,97116.76
2019-05-05T12:26:29.231Z,97117.48
2019-05-05T12:28:28.193Z,97124.58
2019-05-05T12:30:14.592Z,97131.08
2019-05-05T12:31:55.792Z,97136.57
2019-05-05T12:33:51.700Z,97139.11
2019-05-05T12:35:27.807Z,97144.31
2019-05-05T12:37:07.008Z,97139.39
2019-05-05T12:38:48.251Z,97126.12
2019-05-05T12:40:24.633Z,97125.87
2019-05-05T12:42:00.057Z,97121.52
2019-05-05T12:43:35.396Z,97125.21
2019-05-05T12:45:16.740Z,97119.05
2019-05-05T12:47:09.499Z,97114.88
2019-05-05T12:48:48.999Z,97111.90
2019-05-05T12:50:24.638Z,97104.14
2019-05-05T12:52:02.020Z,97093.92
2019-05-05T12:53:39.681Z,97081.14
2019-05-05T12:55:18.596Z,97077.27
2019-05-05T12:56:53.947Z,97077.09
2019-05-05T12:58:30.593Z,97068.59
2019-05-05T13:00:08.295Z,97070.80
2019-05-05T13:01:44.138Z,97069.58
2019-05-05T13:03:19.629Z,97072.62
2019-05-05T13:04:54.947Z,97070.25
2019-05-05T13:06:34.702Z,97076.11
2019-05-05T13:08:10.661Z,97072.95
2019-05-05T13:09:48.567Z,97073.77
2019-05-05T13:11:26.922Z,97076.20
2019-05-05T13:13:06.275Z,97070.09
2019-05-05T13:14:41.469Z,97068.47
2019-05-05T13:16:22.419Z,97070.30
2019-05-05T13:17:59.350Z,97064.53
2019-05-05T13:19:43.889Z,97066.27
2019-05-05T13:21:44.274Z,97058.40
2019-05-05T13:23:34.049Z,97062.66
2019-05-05T13:25:31.193Z,97062.77
2019-05-05T13:27:19.545Z,97066.03
2019-05-05T13:28:56.519Z,97067.14
2019-05-05T13:30:34.279Z,97064.30
2019-05-05T13:32:17.205Z,97066.80
2019-05-05T13:33:54.417Z,97062.24
2019-05-05T13:35:29.154Z,97057.97
2019-05-05T13:37:10.602Z,97062.28
2019-05-05T13:38:51.941Z,97049.45
2019-05-05T13:40:26.578Z,97059.03
2019-05-05T13:42:04.404Z,97057.26
2019-05-05T13:43:42.261Z,97055.24
2019-05-05T13:45:36.514Z,97050.05
2019-05-05T13:47:11.700Z,97050.88
2019-05-05T13:48:49.630Z,97061.76
2019-05-05T13:50:34.133Z,97043.05
2019-05-05T13:52:13.905Z,97036.91
2019-05-05T13:53:51.137Z,97044.28
2019-05-05T13:55:26.671Z,97043.86
2019-05-05T13:57:03.695Z,97035.98
2019-05-05T13:58:39.191Z,97044.32
2019-05-05T14:00:18.480Z,97044.59
2019-05-05T14:01:55.962Z,97044.16
2019-05-05T14:03:34.163Z,97052.16
2019-05-05T14:05:14.209Z,97047.97
2019-05-05T14:06:54.318Z,97044.06
2019-05-05T14:08:29.236Z,97046.44
2019-05-05T14:10:09.449Z,97056.14
2019-05-05T14:11:46.562Z,97055.92
2019-05-05T14:13:21.746Z,97055.48
2019-05-05T14:15:04.351Z,97054.45
2019-05-05T14:16:45.637Z,97051.73
2019-05-05T14:18:23.622Z,97047.05
2019-05-05T14:20:07.923Z,97051.23
2019-05-05T14:21:44.623Z,97046.19
2019-05-05T14:23:24.003Z,97051.81
2019-05-05T14:25:05.966Z,97040.12
2019-05-05T14:26:43.707Z,97047.23
2019-05-05T14:28:19.599Z,97048.60
2019-05-05T14:30:16.125Z,97051.55
2019-05-05T14:31:56.890Z,97045.70
2019-05-05T14:33:50.499Z,97037.72
2019-05-05T14:35:47.204Z,97038.23
2019-05-05T14:37:42.074Z,97042.20
2019-05-05T14:39:23.898Z,97049.67
2019-05-05T14:41:00.605Z,97037.55
2019-05-05T14:42:38.013Z,97038.51
2019-05-05T14:44:18.136Z,97045.17
2019-05-05T14:46:03.725Z,97042.38
2019-05-05T14:47:46.105Z,97030.84
2019-05-05T14:49:21.244Z,97037.35
2019-05-05T14:50:56.410Z,97034.19
2019-05-05T14:52:32.792Z,97044.77
2019-05-05T14:54:14.841Z,97054.88
2019-05-05T14:55:53.742Z,97049.24
2019-05-05T14:57:33.617Z,97047.55
2019-05-05T14:59:09.222Z,97043.63
2019-05-05T15:00:44.673Z,97040.80
2019-05-05T15:02:24.516Z,97044.88
2019-05-05T15:04:04.090Z,97039.89
2019-05-05T15:05:52.169Z,97041.90
2019-05-05T15:07:45.431Z,97038.59
2019-05-05T15:09:44.019Z,97039.38
2019-05-05T15:11:41.869Z,97036.78
2019-05-05T15:13:19.722Z,97039.77
2019-05-05T15:14:59.969Z,97035.67
2019-05-05T15:16:41.078Z,97027.41
2019-05-05T15:18:16.664Z,97035.30
2019-05-05T15:19:59.034Z,97037.34
2019-05-05T15:21:41.433Z,97032.99
2019-05-05T15:23:24.009Z,97041.66
2019-05-05T15:25:11.408Z,97039.42
2019-05-05T15:26:52.243Z,97036.75
2019-05-05T15:28:33.658Z,97036.72
2019-05-05T15:30:19.335Z,97035.53
2019-05-05T15:32:04.358Z,97036.38
2019-05-05T15:33:44.121Z,97032.74
2019-05-05T15:35:23.542Z,97038.11
2019-05-05T15:37:00.255Z,97037.57
2019-05-05T15:38:35.952Z,97036.39
2019-05-05T15:40:14.311Z,97030.09
2019-05-05T15:41:57.253Z,97040.14
2019-05-05T15:43:39.889Z,97038.71
2019-05-05T15:45:17.008Z,97044.63
2019-05-05T15:47:03.329Z,97038.77
2019-05-05T15:48:43.808Z,97033.81
2019-05-05T15:50:26.257Z,97038.70
2019-05-05T15:52:07.063Z,97033.16
2019-05-05T15:53:43.200Z,97018.33
2019-05-05T15:55:18.831Z,97028.05
2019-05-05T15:57:05.625Z,97029.16
2019-05-05T15:58:43.513Z,97032.03
2019-05-05T16:00:25.799Z,97041.23
2019-05-05T16:02:14.781Z,97054.73
2019-05-05T16:03:51.167Z,97057.91
2019-05-05T16:05:29.763Z,97074.84
2019-05-05T16:07:07.569Z,97084.25
2019-05-05T16:08:44.623Z,97086.18
2019-05-05T16:10:25.242Z,97090.13
2019-05-05T16:12:00.470Z,97098.25
2019-05-05T16:13:35.616Z,97092.33
2019-05-05T16:15:34.364Z,97086.70
2019-05-05T16:17:26.245Z,97089.45
2019-05-05T16:19:27.867Z,97088.33
2019-05-05T16:21:26.326Z,97092.14
2019-05-05T16:23:15.477Z,97090.69
2019-05-05T16:25:13.822Z,97087.78
2019-05-05T16:26:50.474Z,97087.95
2019-05-05T16:28:27.435Z,97084.06
2019-05-05T16:30:14.486Z,97088.65
2019-05-05T16:31:53.553Z,97086.12
2019-05-05T16:33:26.958Z,97082.53
2019-05-05T16:35:07.286Z,97085.42
2019-05-05T16:36:44.080Z,97085.30
2019-05-05T16:38:19.450Z,97081.40
2019-05-05T16:39:54.792Z,97092.09
2019-05-05T16:41:34.734Z,97090.91
2019-05-05T16:43:09.936Z,97097.87
2019-05-05T16:44:55.010Z,97100.16
2019-05-05T16:46:34.404Z,97104.08
2019-05-05T16:48:10.942Z,97095.83
2019-05-05T16:49:47.872Z,97098.18
2019-05-05T16:51:30.200Z,97094.31
2019-05-05T16:53:11.102Z,97100.11
2019-05-05T16:55:05.947Z,97096.67
2019-05-05T16:56:44.167Z,97096.27
2019-05-05T16:58:19.818Z,97092.80
2019-05-05T16:59:56.444Z,97100.00
2019-05-05T17:01:37.191Z,97097.64
2019-05-05T17:03:19.867Z,97099.45
2019-05-05T17:05:04.435Z,97095.58
2019-05-05T17:06:45.493Z,97086.73
2019-05-05T17:08:24.301Z,97089.20
2019-05-05T17:09:59.829Z,97086.82
2019-05-05T17:11:35.174Z,97095.88
2019-05-05T17:13:19.355Z,97083.47
2019-05-05T17:15:13.013Z,97085.42
2019-05-05T17:17:14.375Z,97081.22
2019-05-05T17:19:13.915Z,97081.09
2019-05-05T17:20:54.690Z,97077.63
2019-05-05T17:22:35.947Z,97076.92
2019-05-05T17:24:24.465Z,97082.94
2019-05-05T17:26:00.054Z,97081.36
2019-05-05T17:27:47.865Z,97088.07
2019-05-05T17:29:16.197Z,97087.97
2019-05-05T17:30:58.255Z,97088.56
2019-05-05T17:32:36.019Z,97091.73
2019-05-05T17:34:24.665Z,97094.34
2019-05-05T17:36:04.497Z,97094.61
2019-05-05T17:37:39.208Z,97097.23
2019-05-05T17:39:16.729Z,97098.23
2019-05-05T17:41:10.934Z,97094.80
2019-05-05T17:43:07.357Z,97088.55
2019-05-05T17:45:14.382Z,97086.95
2019-05-05T17:47:08.476Z,97091.73
2019-05-05T17:49:18.922Z,97087.95
2019-05-05T17:51:23.446Z,97088.20
2019-05-05T17:53:14.911Z,97096.28
2019-05-05T17:54:57.760Z,97097.87
2019-05-05T17:56:33.684Z,97092.76
2019-05-05T17:58:16.399Z,97087.77
2019-05-05T17:59:53.602Z,97082.89
2019-05-05T18:01:28.842Z,97088.97
2019-05-05T18:03:14.227Z,97086.02
2019-05-05T18:04:49.470Z,97084.43
2019-05-05T18:06:38.712Z,97090.86
2019-05-05T18:08:33.764Z,97091.74
2019-05-05T18:10:26.859Z,97083.14
2019-05-05T18:12:23.660Z,97091.64
2019-05-05T18:14:07.745Z,97090.26
2019-05-05T18:15:54.362Z,97091.84
2019-05-05T18:17:33.986Z,97093.10
2019-05-05T18:19:14.025Z,97095.34
2019-05-05T18:20:57.285Z,97098.66
2019-05-05T18:22:34.414Z,97095.89
2019-05-05T18:24:13.735Z,97092.45
2019-05-05T18:25:49.075Z,97093.64
2019-05-05T18:27:26.865Z,97088.06
2019-05-05T18:29:03.787Z,97093.17
2019-05-05T18:30:40.175Z,97103.27
2019-05-05T18:32:16.211Z,97098.87
2019-05-05T18:34:04.640Z,97091.91
2019-05-05T18:35:45.584Z,97103.03
2019-05-05T18:37:21.027Z,97107.42
2019-05-05T18:38:58.422Z,97106.54
2019-05-05T18:40:36.128Z,97103.14
2019-05-05T18:42:24.691Z,97104.83
2019-05-05T18:44:10.396Z,97105.70
2019-05-05T18:45:51.236Z,97107.47
2019-05-05T18:47:48.331Z,97107.77
2019-05-05T18:49:28.330Z,97107.28
2019-05-05T18:51:08.615Z,97112.80
2019-05-05T18:52:50.817Z,97113.45
2019-05-05T18:54:27.164Z,97114.70
2019-05-05T18:56:07.779Z,97116.89
2019-05-05T18:57:47.263Z,97113.00
2019-05-05T18:59:28.058Z,97118.25
2019-05-05T19:01:30.063Z,97124.88
2019-05-05T19:03:24.473Z,97123.17
2019-05-05T19:05:18.209Z,97127.77
2019-05-05T19:07:19.157Z,97133.03
2019-05-05T19:08:57.227Z,97136.22
2019-05-05T19:10:37.072Z,97136.09
2019-05-05T19:12:15.959Z,97136.75
2019-05-05T19:13:58.988Z,97139.95
2019-05-05T19:15:38.048Z,97145.22
2019-05-05T19:17:19.133Z,97147.03
2019-05-05T19:18:57.552Z,97151.13
2019-05-05T19:20:45.556Z,97149.19
2019-05-05T19:22:23.785Z,97150.72
2019-05-05T19:23:59.580Z,97152.94
2019-05-05T19:25:35.772Z,97159.14
2019-05-05T19:27:11.315Z,97161.66
2019-05-05T19:28:50.291Z,97157.41
2019-05-05T19:30:36.290Z,97163.60
2019-05-05T19:32:17.622Z,97157.60
2019-05-05T19:33:59.663Z,97161.62
2019-05-05T19:35:46.661Z,97158.73
2019-05-05T19:37:23.940Z,97159.85
2019-05-05T19:39:09.607Z,97163.60
2019-05-05T19:40:55.951Z,97167.54
2019-05-05T19:42:30.581Z,97166.84
2019-05-05T19:44:08.907Z,97171.67
2019-05-05T19:45:44.773Z,97167.03